sensor_id;sensor_type;location;lat;lon;timestamp;P1;durP1;ratioP1;P2;durP2;ratioP2
8538;SDS011;4307;53.868;11.680;2024-01-15T00:00:51;3.27;;;1.83;;
8538;SDS011;4307;53.868;11.680;2024-01-15T00:03:17;7.57;;;2.30;;
8538;SDS011;4307;53.868;11.680;2024-01-15T00:05:45;6.00;;;1.53;;
8538;SDS011;4307;53.868;11.680;2024-01-15T00:08:12;10.77;;;2.07;;
8538;SDS011;4307;53.868;11.680;2024-01-15T00:10:39;9.83;;;2.60;;
8538;SDS011;4307;53.868;11.680;2024-01-15T00:13:06;5.20;;;1.87;;
8538;SDS011;4307;53.868;11.680;2024-01-15T00:15:33;12.97;;;2.03;;
8538;SDS011;4307;53.868;11.680;2024-01-15T00:17:59;6.37;;;1.97;;
8538;SDS011;4307;53.868;11.680;2024-01-15T00:20:26;6.57;;;1.40;;
8538;SDS011;4307;53.868;11.680;2024-01-15T00:22:54;9.27;;;2.00;;
8538;SDS011;4307;53.868;11.680;2024-01-15T00:25:20;6.23;;;1.87;;
8538;SDS011;4307;53.868;11.680;2024-01-15T00:27:47;3.67;;;1.60;;
8538;SDS011;4307;53.868;11.680;2024-01-15T00:30:14;6.57;;;1.93;;
8538;SDS011;4307;53.868;11.680;2024-01-15T00:32:41;5.67;;;1.93;;
8538;SDS011;4307;53.868;11.680;2024-01-15T00:35:08;9.53;;;2.50;;
8538;SDS011;4307;53.868;11.680;2024-01-15T00:37:34;7.57;;;1.87;;
8538;SDS011;4307;53.868;11.680;2024-01-15T00:40:03;4.33;;;1.50;;
8538;SDS011;4307;53.868;11.680;2024-01-15T00:42:30;2.17;;;1.00;;
8538;SDS011;4307;53.868;11.680;2024-01-15T00:44:57;8.40;;;1.70;;
8538;SDS011;4307;53.868;11.680;2024-01-15T00:47:23;3.17;;;1.40;;
8538;SDS011;4307;53.868;11.680;2024-01-15T00:49:50;5.20;;;1.40;;
8538;SDS011;4307;53.868;11.680;2024-01-15T00:52:17;5.70;;;2.53;;
8538;SDS011;4307;53.868;11.680;2024-01-15T00:54:43;6.53;;;1.57;;
8538;SDS011;4307;53.868;11.680;2024-01-15T00:57:11;4.77;;;1.40;;
8538;SDS011;4307;53.868;11.680;2024-01-15T00:59:38;18.37;;;1.90;;
8538;SDS011;4307;53.868;11.680;2024-01-15T01:02:05;8.07;;;1.70;;
8538;SDS011;4307;53.868;11.680;2024-01-15T01:04:32;4.70;;;1.63;;
8538;SDS011;4307;53.868;11.680;2024-01-15T01:06:58;10.37;;;2.07;;
8538;SDS011;4307;53.868;11.680;2024-01-15T01:09:25;4.53;;;1.87;;
8538;SDS011;4307;53.868;11.680;2024-01-15T01:11:54;7.87;;;2.00;;
8538;SDS011;4307;53.868;11.680;2024-01-15T01:14:22;6.57;;;1.97;;
8538;SDS011;4307;53.868;11.680;2024-01-15T01:16:48;5.70;;;2.10;;
8538;SDS011;4307;53.868;11.680;2024-01-15T01:19:15;3.13;;;1.30;;
8538;SDS011;4307;53.868;11.680;2024-01-15T01:21:42;5.07;;;2.20;;
8538;SDS011;4307;53.868;11.680;2024-01-15T01:24:08;9.03;;;1.53;;
8538;SDS011;4307;53.868;11.680;2024-01-15T01:26:35;8.97;;;1.83;;
8538;SDS011;4307;53.868;11.680;2024-01-15T01:29:02;2.40;;;1.20;;
8538;SDS011;4307;53.868;11.680;2024-01-15T01:31:30;7.07;;;2.03;;
8538;SDS011;4307;53.868;11.680;2024-01-15T01:33:56;11.90;;;2.10;;
8538;SDS011;4307;53.868;11.680;2024-01-15T01:36:23;8.33;;;1.67;;
8538;SDS011;4307;53.868;11.680;2024-01-15T01:38:49;10.57;;;2.00;;
8538;SDS011;4307;53.868;11.680;2024-01-15T01:41:16;6.83;;;1.87;;
8538;SDS011;4307;53.868;11.680;2024-01-15T01:43:43;3.53;;;1.17;;
8538;SDS011;4307;53.868;11.680;2024-01-15T01:46:09;4.47;;;1.80;;
8538;SDS011;4307;53.868;11.680;2024-01-15T01:48:38;9.73;;;1.73;;
8538;SDS011;4307;53.868;11.680;2024-01-15T01:51:05;11.47;;;1.80;;
8538;SDS011;4307;53.868;11.680;2024-01-15T01:53:33;6.93;;;1.67;;
8538;SDS011;4307;53.868;11.680;2024-01-15T01:56:02;6.03;;;1.60;;
8538;SDS011;4307;53.868;11.680;2024-01-15T01:58:30;6.90;;;2.20;;
8538;SDS011;4307;53.868;11.680;2024-01-15T02:00:57;3.60;;;1.70;;
8538;SDS011;4307;53.868;11.680;2024-01-15T02:03:25;7.40;;;2.47;;
8538;SDS011;4307;53.868;11.680;2024-01-15T02:05:53;8.90;;;2.03;;
8538;SDS011;4307;53.868;11.680;2024-01-15T02:08:21;15.70;;;1.90;;
8538;SDS011;4307;53.868;11.680;2024-01-15T02:10:47;4.90;;;1.60;;
8538;SDS011;4307;53.868;11.680;2024-01-15T02:13:14;5.03;;;1.70;;
8538;SDS011;4307;53.868;11.680;2024-01-15T02:15:41;6.67;;;2.07;;
8538;SDS011;4307;53.868;11.680;2024-01-15T02:18:07;5.50;;;1.50;;
8538;SDS011;4307;53.868;11.680;2024-01-15T02:20:34;11.33;;;2.97;;
8538;SDS011;4307;53.868;11.680;2024-01-15T02:23:06;2.53;;;1.57;;
8538;SDS011;4307;53.868;11.680;2024-01-15T02:25:35;3.57;;;1.40;;
8538;SDS011;4307;53.868;11.680;2024-01-15T02:28:03;3.23;;;1.40;;
8538;SDS011;4307;53.868;11.680;2024-01-15T02:30:30;3.73;;;1.60;;
8538;SDS011;4307;53.868;11.680;2024-01-15T02:32:57;5.30;;;2.17;;
8538;SDS011;4307;53.868;11.680;2024-01-15T02:35:24;5.03;;;1.77;;
8538;SDS011;4307;53.868;11.680;2024-01-15T02:37:51;5.60;;;1.70;;
8538;SDS011;4307;53.868;11.680;2024-01-15T02:40:18;4.47;;;1.77;;
8538;SDS011;4307;53.868;11.680;2024-01-15T02:42:45;5.33;;;1.97;;
8538;SDS011;4307;53.868;11.680;2024-01-15T02:45:12;4.77;;;2.07;;
8538;SDS011;4307;53.868;11.680;2024-01-15T02:47:38;3.70;;;1.70;;
8538;SDS011;4307;53.868;11.680;2024-01-15T02:50:05;4.20;;;1.43;;
8538;SDS011;4307;53.868;11.680;2024-01-15T02:52:33;5.83;;;1.97;;
8538;SDS011;4307;53.868;11.680;2024-01-15T02:54:59;5.53;;;2.07;;
8538;SDS011;4307;53.868;11.680;2024-01-15T02:57:27;6.80;;;1.67;;
8538;SDS011;4307;53.868;11.680;2024-01-15T02:59:54;5.53;;;1.53;;
8538;SDS011;4307;53.868;11.680;2024-01-15T03:02:20;5.70;;;1.70;;
8538;SDS011;4307;53.868;11.680;2024-01-15T03:04:47;7.33;;;2.03;;
8538;SDS011;4307;53.868;11.680;2024-01-15T03:07:14;10.03;;;1.47;;
8538;SDS011;4307;53.868;11.680;2024-01-15T03:09:40;7.30;;;1.50;;
8538;SDS011;4307;53.868;11.680;2024-01-15T03:12:07;6.03;;;1.47;;
8538;SDS011;4307;53.868;11.680;2024-01-15T03:14:36;4.07;;;1.13;;
8538;SDS011;4307;53.868;11.680;2024-01-15T03:17:02;8.73;;;1.57;;
8538;SDS011;4307;53.868;11.680;2024-01-15T03:19:29;5.00;;;1.50;;
8538;SDS011;4307;53.868;11.680;2024-01-15T03:21:56;5.80;;;1.67;;
8538;SDS011;4307;53.868;11.680;2024-01-15T03:24:23;12.23;;;2.23;;
8538;SDS011;4307;53.868;11.680;2024-01-15T03:26:49;9.23;;;1.63;;
8538;SDS011;4307;53.868;11.680;2024-01-15T03:29:16;6.63;;;1.43;;
8538;SDS011;4307;53.868;11.680;2024-01-15T03:31:44;11.67;;;2.07;;
8538;SDS011;4307;53.868;11.680;2024-01-15T03:34:11;8.53;;;1.60;;
8538;SDS011;4307;53.868;11.680;2024-01-15T03:36:37;7.03;;;2.07;;
8538;SDS011;4307;53.868;11.680;2024-01-15T03:39:04;8.40;;;1.97;;
8538;SDS011;4307;53.868;11.680;2024-01-15T03:41:30;14.87;;;2.10;;
8538;SDS011;4307;53.868;11.680;2024-01-15T03:43:57;6.53;;;1.43;;
8538;SDS011;4307;53.868;11.680;2024-01-15T03:46:24;13.13;;;2.47;;
8538;SDS011;4307;53.868;11.680;2024-01-15T03:48:52;5.33;;;1.90;;
8538;SDS011;4307;53.868;11.680;2024-01-15T03:51:18;11.63;;;2.60;;
8538;SDS011;4307;53.868;11.680;2024-01-15T03:53:46;8.87;;;2.47;;
8538;SDS011;4307;53.868;11.680;2024-01-15T03:56:12;7.97;;;2.30;;
8538;SDS011;4307;53.868;11.680;2024-01-15T03:58:39;13.27;;;2.33;;
8538;SDS011;4307;53.868;11.680;2024-01-15T04:01:07;15.97;;;2.77;;
8538;SDS011;4307;53.868;11.680;2024-01-15T04:03:35;18.53;;;2.33;;
8538;SDS011;4307;53.868;11.680;2024-01-15T04:06:03;11.33;;;2.37;;
8538;SDS011;4307;53.868;11.680;2024-01-15T04:08:30;7.13;;;1.97;;
8538;SDS011;4307;53.868;11.680;2024-01-15T04:10:57;8.00;;;2.17;;
8538;SDS011;4307;53.868;11.680;2024-01-15T04:13:23;9.97;;;1.90;;
8538;SDS011;4307;53.868;11.680;2024-01-15T04:15:51;10.60;;;2.50;;
8538;SDS011;4307;53.868;11.680;2024-01-15T04:18:17;10.67;;;2.13;;
8538;SDS011;4307;53.868;11.680;2024-01-15T04:20:44;6.10;;;1.53;;
8538;SDS011;4307;53.868;11.680;2024-01-15T04:23:12;10.53;;;2.00;;
8538;SDS011;4307;53.868;11.680;2024-01-15T04:25:39;10.23;;;2.37;;
8538;SDS011;4307;53.868;11.680;2024-01-15T04:28:07;8.47;;;1.70;;
8538;SDS011;4307;53.868;11.680;2024-01-15T04:30:34;5.43;;;1.53;;
8538;SDS011;4307;53.868;11.680;2024-01-15T04:33:01;5.50;;;1.40;;
8538;SDS011;4307;53.868;11.680;2024-01-15T04:35:28;8.30;;;2.13;;
8538;SDS011;4307;53.868;11.680;2024-01-15T04:37:54;9.77;;;2.00;;
8538;SDS011;4307;53.868;11.680;2024-01-15T04:40:22;4.83;;;1.63;;
8538;SDS011;4307;53.868;11.680;2024-01-15T04:42:52;9.30;;;2.10;;
8538;SDS011;4307;53.868;11.680;2024-01-15T04:45:19;8.73;;;2.10;;
8538;SDS011;4307;53.868;11.680;2024-01-15T04:47:47;7.03;;;1.67;;
8538;SDS011;4307;53.868;11.680;2024-01-15T04:50:14;7.43;;;1.43;;
8538;SDS011;4307;53.868;11.680;2024-01-15T04:52:41;14.10;;;2.30;;
8538;SDS011;4307;53.868;11.680;2024-01-15T04:55:07;4.70;;;1.70;;
8538;SDS011;4307;53.868;11.680;2024-01-15T04:57:36;6.60;;;1.97;;
8538;SDS011;4307;53.868;11.680;2024-01-15T05:00:02;5.37;;;1.77;;
8538;SDS011;4307;53.868;11.680;2024-01-15T05:02:30;7.30;;;1.70;;
8538;SDS011;4307;53.868;11.680;2024-01-15T05:04:56;13.23;;;2.90;;
8538;SDS011;4307;53.868;11.680;2024-01-15T05:07:23;8.40;;;2.17;;
8538;SDS011;4307;53.868;11.680;2024-01-15T05:09:49;8.77;;;2.10;;
8538;SDS011;4307;53.868;11.680;2024-01-15T05:12:16;9.67;;;1.77;;
8538;SDS011;4307;53.868;11.680;2024-01-15T05:14:44;9.80;;;2.13;;
8538;SDS011;4307;53.868;11.680;2024-01-15T05:17:11;10.53;;;2.00;;
8538;SDS011;4307;53.868;11.680;2024-01-15T05:19:37;5.93;;;1.80;;
8538;SDS011;4307;53.868;11.680;2024-01-15T05:22:04;7.93;;;1.90;;
8538;SDS011;4307;53.868;11.680;2024-01-15T05:24:31;8.23;;;1.50;;
8538;SDS011;4307;53.868;11.680;2024-01-15T05:26:57;8.90;;;2.13;;
8538;SDS011;4307;53.868;11.680;2024-01-15T05:29:24;7.30;;;2.07;;
8538;SDS011;4307;53.868;11.680;2024-01-15T05:31:53;13.70;;;2.23;;
8538;SDS011;4307;53.868;11.680;2024-01-15T05:34:19;8.17;;;1.97;;
8538;SDS011;4307;53.868;11.680;2024-01-15T05:36:46;7.53;;;1.93;;
8538;SDS011;4307;53.868;11.680;2024-01-15T05:39:13;5.37;;;1.40;;
8538;SDS011;4307;53.868;11.680;2024-01-15T05:41:40;9.03;;;1.83;;
8538;SDS011;4307;53.868;11.680;2024-01-15T05:44:06;11.83;;;1.57;;
8538;SDS011;4307;53.868;11.680;2024-01-15T05:46:33;7.43;;;1.53;;
8538;SDS011;4307;53.868;11.680;2024-01-15T05:49:01;6.83;;;1.97;;
8538;SDS011;4307;53.868;11.680;2024-01-15T05:51:28;8.73;;;2.20;;
8538;SDS011;4307;53.868;11.680;2024-01-15T05:53:54;14.87;;;2.20;;
8538;SDS011;4307;53.868;11.680;2024-01-15T05:56:21;11.67;;;1.37;;
8538;SDS011;4307;53.868;11.680;2024-01-15T05:58:49;2.47;;;1.03;;
8538;SDS011;4307;53.868;11.680;2024-01-15T06:01:15;6.33;;;1.60;;
8538;SDS011;4307;53.868;11.680;2024-01-15T06:03:42;4.47;;;1.50;;
8538;SDS011;4307;53.868;11.680;2024-01-15T06:06:10;4.73;;;1.37;;
8538;SDS011;4307;53.868;11.680;2024-01-15T06:08:37;5.57;;;1.60;;
8538;SDS011;4307;53.868;11.680;2024-01-15T06:11:03;5.20;;;1.70;;
8538;SDS011;4307;53.868;11.680;2024-01-15T06:13:30;4.80;;;1.70;;
8538;SDS011;4307;53.868;11.680;2024-01-15T06:15:57;7.13;;;1.77;;
8538;SDS011;4307;53.868;11.680;2024-01-15T06:18:23;6.10;;;1.70;;
8538;SDS011;4307;53.868;11.680;2024-01-15T06:20:50;6.63;;;2.27;;
8538;SDS011;4307;53.868;11.680;2024-01-15T06:23:18;8.10;;;2.43;;
8538;SDS011;4307;53.868;11.680;2024-01-15T06:25:44;7.07;;;1.83;;
8538;SDS011;4307;53.868;11.680;2024-01-15T06:28:11;11.20;;;2.47;;
8538;SDS011;4307;53.868;11.680;2024-01-15T06:30:38;8.73;;;2.07;;
8538;SDS011;4307;53.868;11.680;2024-01-15T06:33:05;14.20;;;2.13;;
8538;SDS011;4307;53.868;11.680;2024-01-15T06:35:31;6.87;;;1.73;;
8538;SDS011;4307;53.868;11.680;2024-01-15T06:37:59;12.07;;;2.67;;
8538;SDS011;4307;53.868;11.680;2024-01-15T06:40:27;10.87;;;1.77;;
8538;SDS011;4307;53.868;11.680;2024-01-15T06:42:54;6.77;;;1.70;;
8538;SDS011;4307;53.868;11.680;2024-01-15T06:45:20;12.70;;;2.23;;
8538;SDS011;4307;53.868;11.680;2024-01-15T06:47:47;9.57;;;2.10;;
8538;SDS011;4307;53.868;11.680;2024-01-15T06:50:14;9.57;;;2.47;;
8538;SDS011;4307;53.868;11.680;2024-01-15T06:52:41;8.30;;;1.43;;
8538;SDS011;4307;53.868;11.680;2024-01-15T06:55:07;8.40;;;1.90;;
8538;SDS011;4307;53.868;11.680;2024-01-15T06:57:35;9.30;;;2.00;;
8538;SDS011;4307;53.868;11.680;2024-01-15T07:00:02;6.97;;;2.07;;
8538;SDS011;4307;53.868;11.680;2024-01-15T07:02:32;7.53;;;1.97;;
8538;SDS011;4307;53.868;11.680;2024-01-15T07:04:59;4.80;;;1.30;;
8538;SDS011;4307;53.868;11.680;2024-01-15T07:07:26;3.37;;;1.30;;
8538;SDS011;4307;53.868;11.680;2024-01-15T07:09:54;3.83;;;1.07;;
8538;SDS011;4307;53.868;11.680;2024-01-15T07:12:21;7.40;;;1.20;;
8538;SDS011;4307;53.868;11.680;2024-01-15T07:14:49;4.67;;;1.37;;
8538;SDS011;4307;53.868;11.680;2024-01-15T07:17:16;5.07;;;0.97;;
8538;SDS011;4307;53.868;11.680;2024-01-15T07:19:42;9.37;;;1.63;;
8538;SDS011;4307;53.868;11.680;2024-01-15T07:22:09;3.53;;;1.10;;
8538;SDS011;4307;53.868;11.680;2024-01-15T07:24:36;2.97;;;1.07;;
8538;SDS011;4307;53.868;11.680;2024-01-15T07:27:02;4.47;;;1.50;;
8538;SDS011;4307;53.868;11.680;2024-01-15T07:29:30;4.37;;;1.40;;
8538;SDS011;4307;53.868;11.680;2024-01-15T07:31:59;4.77;;;1.57;;
8538;SDS011;4307;53.868;11.680;2024-01-15T07:34:25;5.10;;;1.80;;
8538;SDS011;4307;53.868;11.680;2024-01-15T07:36:52;7.47;;;1.40;;
8538;SDS011;4307;53.868;11.680;2024-01-15T07:39:19;7.33;;;1.10;;
8538;SDS011;4307;53.868;11.680;2024-01-15T07:41:47;5.03;;;1.57;;
8538;SDS011;4307;53.868;11.680;2024-01-15T07:44:14;7.80;;;1.73;;
8538;SDS011;4307;53.868;11.680;2024-01-15T07:46:43;8.40;;;1.83;;
8538;SDS011;4307;53.868;11.680;2024-01-15T07:49:11;10.30;;;1.70;;
8538;SDS011;4307;53.868;11.680;2024-01-15T07:51:39;2.53;;;1.07;;
8538;SDS011;4307;53.868;11.680;2024-01-15T07:54:08;7.27;;;1.70;;
8538;SDS011;4307;53.868;11.680;2024-01-15T07:56:41;3.67;;;1.23;;
8538;SDS011;4307;53.868;11.680;2024-01-15T07:59:19;2.70;;;1.50;;
8538;SDS011;4307;53.868;11.680;2024-01-15T08:01:45;7.40;;;1.60;;
8538;SDS011;4307;53.868;11.680;2024-01-15T08:04:14;4.20;;;2.10;;
8538;SDS011;4307;53.868;11.680;2024-01-15T08:06:41;3.83;;;1.50;;
8538;SDS011;4307;53.868;11.680;2024-01-15T08:09:08;8.00;;;2.03;;
8538;SDS011;4307;53.868;11.680;2024-01-15T08:11:35;6.97;;;1.50;;
8538;SDS011;4307;53.868;11.680;2024-01-15T08:14:01;4.00;;;1.37;;
8538;SDS011;4307;53.868;11.680;2024-01-15T08:16:28;4.03;;;1.33;;
8538;SDS011;4307;53.868;11.680;2024-01-15T08:18:55;3.23;;;1.00;;
8538;SDS011;4307;53.868;11.680;2024-01-15T08:21:23;5.83;;;1.10;;
8538;SDS011;4307;53.868;11.680;2024-01-15T08:23:49;8.83;;;1.73;;
8538;SDS011;4307;53.868;11.680;2024-01-15T08:26:17;10.23;;;2.20;;
8538;SDS011;4307;53.868;11.680;2024-01-15T08:28:43;9.13;;;2.00;;
8538;SDS011;4307;53.868;11.680;2024-01-15T08:31:10;8.87;;;2.60;;
8538;SDS011;4307;53.868;11.680;2024-01-15T08:33:36;7.53;;;2.00;;
8538;SDS011;4307;53.868;11.680;2024-01-15T08:36:03;5.00;;;1.50;;
8538;SDS011;4307;53.868;11.680;2024-01-15T08:38:32;7.17;;;1.53;;
8538;SDS011;4307;53.868;11.680;2024-01-15T08:40:58;8.33;;;1.90;;
8538;SDS011;4307;53.868;11.680;2024-01-15T08:43:25;3.60;;;1.50;;
8538;SDS011;4307;53.868;11.680;2024-01-15T08:45:52;10.20;;;1.97;;
8538;SDS011;4307;53.868;11.680;2024-01-15T08:48:19;7.87;;;1.57;;
8538;SDS011;4307;53.868;11.680;2024-01-15T08:50:45;9.57;;;2.07;;
8538;SDS011;4307;53.868;11.680;2024-01-15T08:53:12;4.97;;;1.70;;
8538;SDS011;4307;53.868;11.680;2024-01-15T08:55:40;6.63;;;1.67;;
8538;SDS011;4307;53.868;11.680;2024-01-15T08:58:09;4.10;;;1.40;;
8538;SDS011;4307;53.868;11.680;2024-01-15T09:00:36;3.80;;;1.30;;
8538;SDS011;4307;53.868;11.680;2024-01-15T09:03:02;2.87;;;0.80;;
8538;SDS011;4307;53.868;11.680;2024-01-15T09:05:29;2.03;;;1.03;;
8538;SDS011;4307;53.868;11.680;2024-01-15T09:07:56;4.10;;;0.63;;
8538;SDS011;4307;53.868;11.680;2024-01-15T09:10:23;0.80;;;0.73;;
8538;SDS011;4307;53.868;11.680;2024-01-15T09:12:51;3.83;;;0.80;;
8538;SDS011;4307;53.868;11.680;2024-01-15T09:15:18;2.77;;;0.70;;
8538;SDS011;4307;53.868;11.680;2024-01-15T09:17:45;4.30;;;1.20;;
8538;SDS011;4307;53.868;11.680;2024-01-15T09:20:12;2.77;;;0.97;;
8538;SDS011;4307;53.868;11.680;2024-01-15T09:22:38;0.47;;;0.47;;
8538;SDS011;4307;53.868;11.680;2024-01-15T09:25:06;7.30;;;0.80;;
8538;SDS011;4307;53.868;11.680;2024-01-15T09:27:34;2.10;;;0.80;;
8538;SDS011;4307;53.868;11.680;2024-01-15T09:30:02;4.83;;;0.67;;
8538;SDS011;4307;53.868;11.680;2024-01-15T09:32:30;1.63;;;0.43;;
8538;SDS011;4307;53.868;11.680;2024-01-15T09:34:57;3.53;;;0.97;;
8538;SDS011;4307;53.868;11.680;2024-01-15T09:37:24;0.80;;;0.70;;
8538;SDS011;4307;53.868;11.680;2024-01-15T09:39:51;2.10;;;0.70;;
8538;SDS011;4307;53.868;11.680;2024-01-15T09:42:19;1.40;;;0.70;;
8538;SDS011;4307;53.868;11.680;2024-01-15T09:44:46;4.73;;;1.40;;
8538;SDS011;4307;53.868;11.680;2024-01-15T09:47:15;2.40;;;0.60;;
8538;SDS011;4307;53.868;11.680;2024-01-15T09:49:42;1.90;;;0.90;;
8538;SDS011;4307;53.868;11.680;2024-01-15T09:52:09;0.37;;;0.37;;
8538;SDS011;4307;53.868;11.680;2024-01-15T09:54:37;2.60;;;0.60;;
8538;SDS011;4307;53.868;11.680;2024-01-15T09:57:05;2.17;;;0.70;;
8538;SDS011;4307;53.868;11.680;2024-01-15T09:59:32;2.03;;;0.70;;
8538;SDS011;4307;53.868;11.680;2024-01-15T10:02:00;3.73;;;0.70;;
8538;SDS011;4307;53.868;11.680;2024-01-15T10:04:29;1.23;;;0.40;;
8538;SDS011;4307;53.868;11.680;2024-01-15T10:06:55;3.23;;;1.10;;
8538;SDS011;4307;53.868;11.680;2024-01-15T10:09:26;3.20;;;0.70;;
8538;SDS011;4307;53.868;11.680;2024-01-15T10:11:53;4.77;;;1.13;;
8538;SDS011;4307;53.868;11.680;2024-01-15T10:14:20;2.67;;;1.13;;
8538;SDS011;4307;53.868;11.680;2024-01-15T10:16:47;6.73;;;1.47;;
8538;SDS011;4307;53.868;11.680;2024-01-15T10:19:13;3.83;;;0.97;;
8538;SDS011;4307;53.868;11.680;2024-01-15T10:21:41;3.13;;;1.20;;
8538;SDS011;4307;53.868;11.680;2024-01-15T10:24:08;3.83;;;1.13;;
8538;SDS011;4307;53.868;11.680;2024-01-15T10:26:35;5.27;;;1.17;;
8538;SDS011;4307;53.868;11.680;2024-01-15T10:29:01;2.47;;;0.80;;
8538;SDS011;4307;53.868;11.680;2024-01-15T10:31:28;3.23;;;1.07;;
8538;SDS011;4307;53.868;11.680;2024-01-15T10:33:55;2.63;;;0.83;;
8538;SDS011;4307;53.868;11.680;2024-01-15T10:36:36;2.03;;;0.90;;
8538;SDS011;4307;53.868;11.680;2024-01-15T10:39:07;1.60;;;0.50;;
8538;SDS011;4307;53.868;11.680;2024-01-15T10:41:34;10.83;;;1.17;;
8538;SDS011;4307;53.868;11.680;2024-01-15T10:44:00;4.43;;;0.90;;
8538;SDS011;4307;53.868;11.680;2024-01-15T10:46:27;1.17;;;1.03;;
8538;SDS011;4307;53.868;11.680;2024-01-15T10:48:55;1.87;;;1.43;;
8538;SDS011;4307;53.868;11.680;2024-01-15T10:51:21;6.17;;;1.73;;
8538;SDS011;4307;53.868;11.680;2024-01-15T10:53:51;4.70;;;1.10;;
8538;SDS011;4307;53.868;11.680;2024-01-15T10:56:20;2.93;;;1.40;;
8538;SDS011;4307;53.868;11.680;2024-01-15T10:58:47;1.70;;;1.10;;
8538;SDS011;4307;53.868;11.680;2024-01-15T11:01:14;2.53;;;1.17;;
8538;SDS011;4307;53.868;11.680;2024-01-15T11:03:42;6.27;;;2.20;;
8538;SDS011;4307;53.868;11.680;2024-01-15T11:06:15;4.10;;;1.43;;
8538;SDS011;4307;53.868;11.680;2024-01-15T11:08:42;0.70;;;0.70;;
8538;SDS011;4307;53.868;11.680;2024-01-15T11:11:09;1.00;;;0.80;;
8538;SDS011;4307;53.868;11.680;2024-01-15T11:13:43;5.30;;;1.20;;
8538;SDS011;4307;53.868;11.680;2024-01-15T11:16:15;3.90;;;0.83;;
8538;SDS011;4307;53.868;11.680;2024-01-15T11:18:42;2.13;;;1.17;;
8538;SDS011;4307;53.868;11.680;2024-01-15T11:21:27;2.87;;;1.43;;
8538;SDS011;4307;53.868;11.680;2024-01-15T11:23:55;3.63;;;1.20;;
8538;SDS011;4307;53.868;11.680;2024-01-15T11:26:29;1.57;;;1.10;;
8538;SDS011;4307;53.868;11.680;2024-01-15T11:28:59;1.27;;;0.97;;
8538;SDS011;4307;53.868;11.680;2024-01-15T11:31:28;5.43;;;1.57;;
8538;SDS011;4307;53.868;11.680;2024-01-15T11:33:56;3.30;;;1.20;;
8538;SDS011;4307;53.868;11.680;2024-01-15T11:39:41;6.50;;;1.37;;
8538;SDS011;4307;53.868;11.680;2024-01-15T11:42:11;0.60;;;0.60;;
8538;SDS011;4307;53.868;11.680;2024-01-15T11:44:40;2.77;;;1.30;;
8538;SDS011;4307;53.868;11.680;2024-01-15T11:47:08;3.83;;;0.90;;
8538;SDS011;4307;53.868;11.680;2024-01-15T11:49:45;2.33;;;0.67;;
8538;SDS011;4307;53.868;11.680;2024-01-15T11:52:25;1.90;;;0.83;;
8538;SDS011;4307;53.868;11.680;2024-01-15T11:54:55;3.47;;;1.03;;
8538;SDS011;4307;53.868;11.680;2024-01-15T11:57:29;7.23;;;0.87;;
8538;SDS011;4307;53.868;11.680;2024-01-15T12:00:03;1.83;;;1.10;;
8538;SDS011;4307;53.868;11.680;2024-01-15T12:02:30;2.30;;;1.27;;
8538;SDS011;4307;53.868;11.680;2024-01-15T12:04:57;2.57;;;1.67;;
8538;SDS011;4307;53.868;11.680;2024-01-15T12:07:24;1.60;;;1.50;;
8538;SDS011;4307;53.868;11.680;2024-01-15T12:09:50;2.30;;;1.40;;
8538;SDS011;4307;53.868;11.680;2024-01-15T12:12:19;5.53;;;1.00;;
8538;SDS011;4307;53.868;11.680;2024-01-15T12:14:50;2.43;;;0.87;;
8538;SDS011;4307;53.868;11.680;2024-01-15T12:17:18;3.37;;;1.00;;
8538;SDS011;4307;53.868;11.680;2024-01-15T12:19:45;4.53;;;1.00;;
8538;SDS011;4307;53.868;11.680;2024-01-15T12:22:11;1.40;;;0.73;;
8538;SDS011;4307;53.868;11.680;2024-01-15T12:24:38;5.50;;;1.23;;
8538;SDS011;4307;53.868;11.680;2024-01-15T12:27:05;3.20;;;2.00;;
8538;SDS011;4307;53.868;11.680;2024-01-15T12:29:31;1.73;;;1.30;;
8538;SDS011;4307;53.868;11.680;2024-01-15T12:31:58;2.10;;;1.03;;
8538;SDS011;4307;53.868;11.680;2024-01-15T12:34:29;3.73;;;0.87;;
8538;SDS011;4307;53.868;11.680;2024-01-15T12:36:57;2.77;;;0.93;;
8538;SDS011;4307;53.868;11.680;2024-01-15T12:39:24;5.13;;;1.23;;
8538;SDS011;4307;53.868;11.680;2024-01-15T12:41:51;5.50;;;1.17;;
8538;SDS011;4307;53.868;11.680;2024-01-15T12:44:17;3.33;;;0.90;;
8538;SDS011;4307;53.868;11.680;2024-01-15T12:46:53;4.27;;;2.77;;
8538;SDS011;4307;53.868;11.680;2024-01-15T12:49:20;2.23;;;0.87;;
8538;SDS011;4307;53.868;11.680;2024-01-15T12:51:51;1.77;;;0.93;;
8538;SDS011;4307;53.868;11.680;2024-01-15T12:54:18;1.20;;;0.67;;
8538;SDS011;4307;53.868;11.680;2024-01-15T12:56:45;2.43;;;0.80;;
8538;SDS011;4307;53.868;11.680;2024-01-15T12:59:11;6.97;;;1.57;;
8538;SDS011;4307;53.868;11.680;2024-01-15T13:01:38;3.43;;;0.90;;
8538;SDS011;4307;53.868;11.680;2024-01-15T13:04:07;1.83;;;0.93;;
8538;SDS011;4307;53.868;11.680;2024-01-15T13:06:34;3.57;;;1.00;;
8538;SDS011;4307;53.868;11.680;2024-01-15T13:09:01;3.40;;;0.90;;
8538;SDS011;4307;53.868;11.680;2024-01-15T13:11:30;6.90;;;1.07;;
8538;SDS011;4307;53.868;11.680;2024-01-15T13:13:57;2.83;;;0.57;;
8538;SDS011;4307;53.868;11.680;2024-01-15T13:16:23;2.90;;;0.97;;
8538;SDS011;4307;53.868;11.680;2024-01-15T13:18:52;1.43;;;0.90;;
8538;SDS011;4307;53.868;11.680;2024-01-15T13:21:20;5.07;;;1.00;;
8538;SDS011;4307;53.868;11.680;2024-01-15T13:23:46;3.23;;;0.90;;
8538;SDS011;4307;53.868;11.680;2024-01-15T13:26:13;2.63;;;0.87;;
8538;SDS011;4307;53.868;11.680;2024-01-15T13:28:40;1.80;;;0.70;;
8538;SDS011;4307;53.868;11.680;2024-01-15T13:31:07;2.37;;;0.60;;
8538;SDS011;4307;53.868;11.680;2024-01-15T13:33:34;1.50;;;0.70;;
8538;SDS011;4307;53.868;11.680;2024-01-15T13:36:00;1.73;;;0.70;;
8538;SDS011;4307;53.868;11.680;2024-01-15T13:38:29;1.03;;;0.70;;
8538;SDS011;4307;53.868;11.680;2024-01-15T13:41:01;0.97;;;0.40;;
8538;SDS011;4307;53.868;11.680;2024-01-15T13:43:27;5.33;;;1.40;;
8538;SDS011;4307;53.868;11.680;2024-01-15T13:45:54;3.90;;;0.83;;
8538;SDS011;4307;53.868;11.680;2024-01-15T13:48:20;2.20;;;1.23;;
8538;SDS011;4307;53.868;11.680;2024-01-15T13:50:47;2.30;;;0.57;;
8538;SDS011;4307;53.868;11.680;2024-01-15T13:53:15;4.57;;;1.17;;
8538;SDS011;4307;53.868;11.680;2024-01-15T13:55:43;1.40;;;0.90;;
8538;SDS011;4307;53.868;11.680;2024-01-15T13:58:10;0.97;;;0.67;;
8538;SDS011;4307;53.868;11.680;2024-01-15T14:00:37;1.30;;;0.80;;
8538;SDS011;4307;53.868;11.680;2024-01-15T14:03:05;3.63;;;0.83;;
8538;SDS011;4307;53.868;11.680;2024-01-15T14:05:31;1.43;;;0.53;;
8538;SDS011;4307;53.868;11.680;2024-01-15T14:07:58;2.43;;;1.00;;
8538;SDS011;4307;53.868;11.680;2024-01-15T14:10:25;1.00;;;0.57;;
8538;SDS011;4307;53.868;11.680;2024-01-15T14:12:53;2.20;;;0.90;;
8538;SDS011;4307;53.868;11.680;2024-01-15T14:15:19;1.30;;;0.70;;
8538;SDS011;4307;53.868;11.680;2024-01-15T14:17:47;4.30;;;0.93;;
8538;SDS011;4307;53.868;11.680;2024-01-15T14:20:13;3.63;;;0.97;;
8538;SDS011;4307;53.868;11.680;2024-01-15T14:22:40;1.67;;;0.60;;
8538;SDS011;4307;53.868;11.680;2024-01-15T14:25:07;1.97;;;0.50;;
8538;SDS011;4307;53.868;11.680;2024-01-15T14:27:34;4.00;;;0.63;;
8538;SDS011;4307;53.868;11.680;2024-01-15T14:30:03;0.60;;;0.50;;
8538;SDS011;4307;53.868;11.680;2024-01-15T14:32:33;3.27;;;0.50;;
8538;SDS011;4307;53.868;11.680;2024-01-15T14:34:59;1.43;;;0.37;;
8538;SDS011;4307;53.868;11.680;2024-01-15T14:37:28;1.60;;;0.70;;
8538;SDS011;4307;53.868;11.680;2024-01-15T14:39:54;2.07;;;0.60;;
8538;SDS011;4307;53.868;11.680;2024-01-15T14:42:21;2.63;;;0.63;;
8538;SDS011;4307;53.868;11.680;2024-01-15T14:44:49;2.37;;;0.80;;
8538;SDS011;4307;53.868;11.680;2024-01-15T14:47:17;2.73;;;1.00;;
8538;SDS011;4307;53.868;11.680;2024-01-15T14:49:44;0.70;;;0.67;;
8538;SDS011;4307;53.868;11.680;2024-01-15T14:52:10;1.67;;;0.83;;
8538;SDS011;4307;53.868;11.680;2024-01-15T14:54:37;1.07;;;0.70;;
8538;SDS011;4307;53.868;11.680;2024-01-15T14:57:04;2.00;;;0.83;;
8538;SDS011;4307;53.868;11.680;2024-01-15T14:59:32;4.03;;;1.00;;
8538;SDS011;4307;53.868;11.680;2024-01-15T15:01:58;2.23;;;1.10;;
8538;SDS011;4307;53.868;11.680;2024-01-15T15:04:27;2.17;;;0.53;;